createdAt,value
2019-04-30T00:01:07.544Z,19.17
2019-04-30T00:03:38.326Z,18.70
2019-04-30T00:06:07.471Z,18.53
2019-04-30T00:08:39.168Z,19.53
2019-04-30T00:11:06.451Z,19.73
2019-04-30T00:13:35.920Z,19.50
2019-04-30T00:16:05.379Z,18.43
2019-04-30T00:18:37.921Z,19.30
2019-04-30T00:21:05.461Z,19.57
2019-04-30T00:23:35.919Z,19.90
2019-04-30T00:26:09.907Z,21.00
2019-04-30T00:28:35.381Z,20.10
2019-04-30T00:31:05.511Z,19.77
2019-04-30T00:33:35.385Z,19.50
2019-04-30T00:36:05.069Z,20.33
2019-04-30T00:38:37.731Z,19.77
2019-04-30T00:41:06.930Z,18.60
2019-04-30T00:43:35.380Z,20.20
2019-04-30T00:46:05.082Z,19.30
2019-04-30T00:48:35.563Z,21.20
2019-04-30T00:51:07.481Z,21.17
2019-04-30T00:53:35.792Z,21.43
2019-04-30T00:56:05.674Z,21.03
2019-04-30T00:58:35.623Z,20.97
2019-04-30T01:01:17.126Z,20.13
2019-04-30T01:03:49.552Z,20.60
2019-04-30T01:06:26.842Z,21.10
2019-04-30T01:08:48.218Z,20.80
2019-04-30T01:11:16.830Z,20.50
2019-04-30T01:13:50.218Z,19.10
2019-04-30T01:16:15.627Z,19.80
2019-04-30T01:18:44.194Z,20.20
2019-04-30T01:21:12.819Z,22.07
2019-04-30T01:23:48.203Z,20.27
2019-04-30T01:26:12.165Z,20.40
2019-04-30T01:28:40.881Z,20.57
2019-04-30T01:31:09.966Z,20.13
2019-04-30T01:33:39.048Z,21.63
2019-04-30T01:36:09.573Z,20.83
2019-04-30T01:38:40.041Z,20.30
2019-04-30T01:41:09.477Z,21.67
2019-04-30T01:43:38.610Z,21.00
2019-04-30T01:46:09.398Z,22.63
2019-04-30T01:48:39.187Z,20.17
2019-04-30T01:51:08.982Z,21.20
2019-04-30T01:53:38.743Z,21.30
2019-04-30T01:56:15.074Z,20.37
2019-04-30T01:58:49.529Z,20.30
2019-04-30T02:01:23.021Z,20.03
2019-04-30T02:03:51.584Z,20.80
2019-04-30T02:06:20.190Z,21.07
2019-04-30T02:08:49.363Z,20.60
2019-04-30T02:11:18.993Z,20.37
2019-04-30T02:13:49.188Z,18.63
2019-04-30T02:16:18.678Z,19.60
2019-04-30T02:18:49.525Z,20.50
2019-04-30T02:21:19.521Z,21.07
2019-04-30T02:23:49.276Z,19.37
2019-04-30T02:26:18.718Z,19.40
2019-04-30T02:28:49.375Z,20.07
2019-04-30T02:31:19.335Z,19.17
2019-04-30T02:33:50.244Z,20.00
2019-04-30T02:36:29.957Z,19.83
2019-04-30T02:38:59.519Z,20.83
2019-04-30T02:41:29.789Z,19.63
2019-04-30T02:43:59.874Z,20.80
2019-04-30T02:46:32.345Z,20.03
2019-04-30T02:49:01.035Z,19.97
2019-04-30T02:51:32.406Z,19.67
2019-04-30T02:54:12.884Z,19.30
2019-04-30T02:56:42.990Z,20.20
2019-04-30T02:59:11.559Z,19.60
2019-04-30T03:01:40.620Z,19.10
2019-04-30T03:04:09.814Z,19.20
2019-04-30T03:06:40.112Z,18.10
2019-04-30T03:09:10.273Z,19.80
2019-04-30T03:11:40.471Z,17.27
2019-04-30T03:14:10.241Z,19.37
2019-04-30T03:16:44.070Z,19.17
2019-04-30T03:19:14.256Z,19.50
2019-04-30T03:21:50.400Z,19.67
2019-04-30T03:24:20.199Z,17.57
2019-04-30T03:26:50.044Z,18.37
2019-04-30T03:29:20.391Z,17.93
2019-04-30T03:31:52.303Z,17.03
2019-04-30T03:34:25.148Z,18.27
2019-04-30T03:36:50.410Z,17.67
2019-04-30T03:39:19.851Z,17.77
2019-04-30T03:41:50.253Z,18.30
2019-04-30T03:44:25.437Z,18.20
2019-04-30T03:46:49.953Z,18.70
2019-04-30T03:49:20.319Z,17.10
2019-04-30T03:51:49.876Z,16.50
2019-04-30T03:54:19.402Z,18.13
2019-04-30T03:56:50.147Z,18.03
2019-04-30T03:59:19.942Z,18.23
2019-04-30T04:01:53.345Z,17.80
2019-04-30T04:04:30.940Z,16.73
2019-04-30T04:07:17.195Z,17.23
2019-04-30T04:10:03.802Z,17.33
2019-04-30T04:12:32.347Z,16.30
2019-04-30T04:15:03.908Z,16.90
2019-04-30T04:17:31.620Z,17.73
2019-04-30T04:20:00.353Z,18.63
2019-04-30T04:22:30.557Z,17.77
2019-04-30T04:25:00.100Z,17.60
2019-04-30T04:27:30.193Z,17.93
2019-04-30T04:30:01.189Z,16.53
2019-04-30T04:32:30.714Z,16.90
2019-04-30T04:35:00.328Z,17.87
2019-04-30T04:37:30.223Z,18.70
2019-04-30T04:39:59.690Z,16.80
2019-04-30T04:42:30.035Z,18.80
2019-04-30T04:44:59.567Z,16.90
2019-04-30T04:47:30.953Z,18.07
2019-04-30T04:50:00.689Z,17.07
2019-04-30T04:52:31.557Z,18.40
2019-04-30T04:55:00.410Z,16.70
2019-04-30T04:57:30.370Z,18.77
2019-04-30T05:00:06.577Z,17.73
2019-04-30T05:02:40.555Z,18.90
2019-04-30T05:05:09.771Z,18.43
2019-04-30T05:07:39.925Z,17.07
2019-04-30T05:10:09.283Z,17.90
2019-04-30T05:12:39.864Z,17.57
2019-04-30T05:15:09.550Z,18.73
2019-04-30T05:17:39.736Z,19.17
2019-04-30T05:20:10.145Z,18.03
2019-04-30T05:22:39.053Z,16.33
2019-04-30T05:25:08.828Z,17.30
2019-04-30T05:27:39.296Z,17.70
2019-04-30T05:30:11.752Z,17.30
2019-04-30T05:32:39.136Z,18.30
2019-04-30T05:35:09.523Z,17.47
2019-04-30T05:37:38.615Z,17.13
2019-04-30T05:40:09.155Z,18.03
2019-04-30T05:42:38.793Z,16.87
2019-04-30T05:45:09.292Z,19.93
2019-04-30T05:47:38.886Z,18.50
2019-04-30T05:50:08.962Z,18.43
2019-04-30T05:52:39.695Z,18.33
2019-04-30T05:55:08.851Z,18.33
2019-04-30T05:57:40.826Z,17.83
2019-04-30T06:00:09.968Z,17.23
2019-04-30T06:02:40.058Z,17.03
2019-04-30T06:05:09.254Z,17.67
2019-04-30T06:07:39.544Z,17.37
2019-04-30T06:10:13.001Z,17.60
2019-04-30T06:12:43.225Z,19.27
2019-04-30T06:15:13.802Z,19.40
2019-04-30T06:17:44.012Z,17.37
2019-04-30T06:20:18.449Z,19.83
2019-04-30T06:22:43.117Z,17.47
2019-04-30T06:25:11.762Z,18.33
2019-04-30T06:27:40.740Z,19.03
2019-04-30T06:30:12.126Z,19.70
2019-04-30T06:32:40.836Z,18.00
2019-04-30T06:35:10.249Z,17.93
2019-04-30T06:37:39.151Z,17.43
2019-04-30T06:40:09.389Z,16.60
2019-04-30T06:43:00.650Z,17.13
2019-04-30T06:45:29.666Z,17.27
2019-04-30T06:48:00.257Z,15.70
2019-04-30T06:50:29.296Z,17.77
2019-04-30T06:53:00.978Z,14.97
2019-04-30T06:55:30.594Z,15.23
2019-04-30T06:58:11.404Z,15.77
2019-04-30T07:00:39.604Z,14.57
2019-04-30T07:03:09.409Z,14.50
2019-04-30T07:05:38.927Z,14.80
2019-04-30T07:08:36.166Z,14.07
2019-04-30T07:11:14.046Z,13.10
2019-04-30T07:13:43.989Z,14.57
2019-04-30T07:16:12.672Z,14.83
2019-04-30T07:18:41.186Z,14.60
2019-04-30T07:21:09.658Z,13.90
2019-04-30T07:23:38.808Z,13.73
2019-04-30T07:26:09.015Z,12.80
2019-04-30T07:28:46.138Z,14.43
2019-04-30T07:31:14.058Z,13.37
2019-04-30T07:33:39.678Z,13.77
2019-04-30T07:36:09.617Z,13.40
2019-04-30T07:38:45.081Z,12.10
2019-04-30T07:41:09.570Z,12.97
2019-04-30T07:43:39.341Z,13.60
2019-04-30T07:46:09.276Z,13.93
2019-04-30T07:48:40.214Z,13.10
2019-04-30T07:51:10.418Z,13.60
2019-04-30T07:53:40.364Z,13.87
2019-04-30T07:56:24.147Z,13.57
2019-04-30T07:58:39.270Z,11.77
2019-04-30T08:01:10.290Z,12.27
2019-04-30T08:03:54.755Z,11.97
2019-04-30T08:06:23.591Z,11.20
2019-04-30T08:08:57.191Z,11.33
2019-04-30T08:11:26.069Z,11.00
2019-04-30T08:13:52.754Z,12.33
2019-04-30T08:16:21.362Z,11.07
2019-04-30T08:18:49.913Z,10.73
2019-04-30T08:21:19.038Z,10.77
2019-04-30T08:23:48.980Z,10.60
2019-04-30T08:26:18.771Z,9.80
2019-04-30T08:28:48.790Z,10.10
2019-04-30T08:31:19.497Z,9.67
2019-04-30T08:33:49.081Z,10.17
2019-04-30T08:36:19.550Z,10.90
2019-04-30T08:38:49.562Z,10.40
2019-04-30T08:41:19.360Z,10.50
2019-04-30T08:43:49.630Z,9.90
2019-04-30T08:46:19.054Z,9.30
2019-04-30T08:48:51.627Z,9.60
2019-04-30T08:51:19.091Z,9.20
2019-04-30T08:53:48.600Z,10.37
2019-04-30T08:56:21.697Z,10.10
2019-04-30T08:58:49.088Z,10.03
2019-04-30T09:01:19.574Z,9.33
2019-04-30T09:03:50.955Z,8.70
2019-04-30T09:06:19.847Z,9.00
2019-04-30T09:08:49.234Z,9.10
2019-04-30T09:11:25.192Z,10.07
2019-04-30T09:13:48.795Z,9.43
2019-04-30T09:16:19.363Z,10.50
2019-04-30T09:18:49.477Z,9.13
2019-04-30T09:21:18.638Z,9.30
2019-04-30T09:23:51.975Z,8.83
2019-04-30T09:26:18.731Z,8.97
2019-04-30T09:28:49.242Z,9.67
2019-04-30T09:31:19.631Z,9.20
2019-04-30T09:33:49.256Z,9.27
2019-04-30T09:36:20.576Z,8.07
2019-04-30T09:38:48.636Z,7.87
2019-04-30T09:41:19.146Z,7.93
2019-04-30T09:43:49.243Z,8.07
2019-04-30T09:46:24.618Z,7.50
2019-04-30T09:48:47.914Z,8.67
2019-04-30T09:51:16.751Z,8.13
2019-04-30T09:53:55.610Z,8.87
2019-04-30T09:56:15.813Z,7.97
2019-04-30T09:58:44.374Z,7.20
2019-04-30T10:01:12.978Z,8.60
2019-04-30T10:03:42.117Z,8.17
2019-04-30T10:06:10.877Z,8.23
2019-04-30T10:08:47.963Z,7.70
2019-04-30T10:11:26.572Z,7.30
2019-04-30T10:13:55.033Z,7.67
2019-04-30T10:16:34.506Z,7.90
2019-04-30T10:19:03.047Z,8.03
2019-04-30T10:21:31.873Z,7.43
2019-04-30T10:24:12.456Z,7.57
2019-04-30T10:26:30.726Z,7.63
2019-04-30T10:29:00.264Z,7.30
2019-04-30T10:31:29.338Z,8.27
2019-04-30T10:33:58.571Z,8.60
2019-04-30T10:36:29.423Z,8.50
2019-04-30T10:38:59.369Z,7.60
2019-04-30T10:41:28.824Z,7.63
2019-04-30T10:43:59.118Z,7.40
2019-04-30T10:46:27.750Z,7.60
2019-04-30T10:48:56.449Z,6.37
2019-04-30T10:51:24.988Z,7.20
2019-04-30T10:53:53.553Z,7.50
2019-04-30T10:56:22.096Z,7.80
2019-04-30T10:58:50.666Z,7.80
2019-04-30T11:01:19.320Z,7.37
2019-04-30T11:03:48.037Z,7.17
2019-04-30T11:06:16.510Z,6.20
2019-04-30T11:08:45.129Z,6.50
2019-04-30T11:11:13.679Z,7.17
2019-04-30T11:13:42.522Z,5.93
2019-04-30T11:16:14.655Z,6.70
2019-04-30T11:18:41.447Z,6.60
2019-04-30T11:21:10.248Z,5.70
2019-04-30T11:23:39.541Z,5.50
2019-04-30T11:26:08.902Z,6.60
2019-04-30T11:28:37.932Z,6.47
2019-04-30T11:31:08.415Z,4.77
2019-04-30T11:33:37.335Z,6.27
2019-04-30T11:36:06.062Z,5.43
2019-04-30T11:38:34.614Z,5.10
2019-04-30T11:41:03.170Z,5.33
2019-04-30T11:43:31.659Z,6.70
2019-04-30T11:46:25.723Z,5.50
2019-04-30T11:48:54.995Z,5.90
2019-04-30T11:51:23.765Z,6.40
2019-04-30T11:53:52.394Z,6.03
2019-04-30T11:56:20.858Z,6.50
2019-04-30T11:58:49.422Z,6.67
2019-04-30T12:01:19.605Z,5.60
2019-04-30T12:03:49.718Z,5.07
2019-04-30T12:06:18.558Z,5.87
2019-04-30T12:09:00.745Z,5.23
2019-04-30T12:11:36.779Z,5.43
2019-04-30T12:14:05.881Z,5.20
2019-04-30T12:16:34.561Z,6.87
2019-04-30T12:19:03.561Z,4.63
2019-04-30T12:21:32.091Z,5.07
2019-04-30T12:24:00.666Z,5.10
2019-04-30T12:26:29.212Z,4.50
2019-04-30T12:28:57.785Z,3.87
2019-04-30T12:31:26.399Z,4.00
2019-04-30T12:33:54.953Z,4.57
2019-04-30T12:36:23.418Z,4.93
2019-04-30T12:38:51.891Z,4.57
2019-04-30T12:41:20.815Z,4.43
2019-04-30T12:43:49.706Z,4.23
2019-04-30T12:46:18.963Z,5.13
2019-04-30T12:48:50.181Z,4.63
2019-04-30T12:51:20.394Z,5.03
2019-04-30T12:53:59.739Z,4.63
2019-04-30T12:56:29.938Z,5.27
2019-04-30T12:58:58.477Z,4.47
2019-04-30T13:01:31.670Z,4.67
2019-04-30T13:03:59.385Z,4.90
2019-04-30T13:06:27.896Z,4.23
2019-04-30T13:08:57.431Z,4.87
2019-04-30T13:11:28.173Z,4.67
2019-04-30T13:13:59.632Z,5.47
2019-04-30T13:16:29.241Z,5.17
2019-04-30T13:18:59.372Z,4.53
2019-04-30T13:21:28.481Z,4.70
2019-04-30T13:23:57.153Z,4.70
2019-04-30T13:26:25.704Z,4.57
2019-04-30T13:28:58.592Z,4.93
2019-04-30T13:31:29.318Z,4.93
2019-04-30T13:34:16.096Z,5.63
2019-04-30T13:36:44.625Z,4.80
2019-04-30T13:39:14.802Z,4.40
2019-04-30T13:41:46.260Z,5.07
2019-04-30T13:44:16.286Z,5.33
2019-04-30T13:46:44.850Z,5.10
2019-04-30T13:49:13.526Z,4.90
2019-04-30T13:51:43.005Z,5.93
2019-04-30T13:54:11.638Z,5.63
2019-04-30T13:56:40.610Z,5.47
2019-04-30T13:59:09.223Z,5.40
2019-04-30T14:01:39.046Z,5.30
2019-04-30T14:04:12.301Z,5.80
2019-04-30T14:06:45.485Z,4.90
2019-04-30T14:09:27.956Z,6.00
2019-04-30T14:11:56.514Z,7.20
2019-04-30T14:14:25.052Z,5.90
2019-04-30T14:16:53.538Z,5.93
2019-04-30T14:19:22.153Z,5.90
2019-04-30T14:21:51.111Z,6.30
2019-04-30T14:24:19.650Z,5.83
2019-04-30T14:26:49.128Z,5.57
2019-04-30T14:29:17.766Z,5.93
2019-04-30T14:31:46.409Z,6.23
2019-04-30T14:34:14.942Z,5.70
2019-04-30T14:36:43.573Z,6.10
2019-04-30T14:39:16.792Z,5.70
2019-04-30T14:41:43.247Z,5.80
2019-04-30T14:44:14.569Z,6.60
2019-04-30T14:46:50.142Z,6.67
2019-04-30T14:49:36.076Z,7.43
2019-04-30T14:52:05.513Z,6.77
2019-04-30T14:54:51.983Z,6.47
2019-04-30T14:57:38.458Z,7.27
2019-04-30T15:00:11.859Z,6.53
2019-04-30T15:02:41.994Z,6.97
2019-04-30T15:05:10.871Z,6.00
2019-04-30T15:07:39.738Z,6.20
2019-04-30T15:10:08.590Z,6.10
2019-04-30T15:12:37.198Z,5.43
2019-04-30T15:15:09.105Z,6.70
2019-04-30T15:17:39.244Z,6.43
2019-04-30T15:20:08.785Z,5.90
2019-04-30T15:22:39.150Z,6.37
2019-04-30T15:25:07.850Z,6.33
2019-04-30T15:27:36.341Z,6.83
2019-04-30T15:30:10.076Z,5.97
2019-04-30T15:32:40.208Z,6.60
2019-04-30T15:35:08.938Z,6.30
2019-04-30T15:37:39.089Z,5.80
2019-04-30T15:40:09.050Z,5.90
2019-04-30T15:42:39.411Z,6.80
2019-04-30T15:45:09.273Z,7.20
2019-04-30T15:47:38.744Z,6.40
2019-04-30T15:50:09.669Z,6.70
2019-04-30T15:52:38.722Z,6.27
2019-04-30T15:55:09.169Z,5.87
2019-04-30T15:57:39.576Z,6.27
2019-04-30T16:00:08.658Z,6.77
2019-04-30T16:02:54.738Z,6.57
2019-04-30T16:05:16.636Z,6.10
2019-04-30T16:07:46.768Z,6.60
2019-04-30T16:10:18.642Z,6.83
2019-04-30T16:12:48.894Z,6.57
2019-04-30T16:15:18.548Z,6.30
2019-04-30T16:17:49.333Z,7.10
2019-04-30T16:20:18.087Z,8.03
2019-04-30T16:22:46.730Z,6.80
2019-04-30T16:25:15.266Z,7.10
2019-04-30T16:27:43.839Z,7.40
2019-04-30T16:30:13.088Z,6.60
2019-04-30T16:32:41.653Z,7.10
2019-04-30T16:35:10.250Z,7.20
2019-04-30T16:37:38.838Z,6.30
2019-04-30T16:40:08.315Z,6.53
2019-04-30T16:42:38.998Z,7.10
2019-04-30T16:45:09.315Z,6.83
2019-04-30T16:47:37.982Z,6.40
2019-04-30T16:50:09.148Z,6.43
2019-04-30T16:52:39.339Z,7.00
2019-04-30T16:55:07.964Z,6.50
2019-04-30T16:57:36.499Z,6.87
2019-04-30T17:00:09.388Z,7.30
2019-04-30T17:02:39.335Z,6.13
2019-04-30T17:05:15.569Z,6.80
2019-04-30T17:08:02.187Z,7.07
2019-04-30T17:10:44.369Z,7.03
2019-04-30T17:13:23.894Z,8.10
2019-04-30T17:15:54.066Z,6.77
2019-04-30T17:18:22.590Z,6.57
2019-04-30T17:20:51.125Z,6.87
2019-04-30T17:23:19.657Z,6.50
2019-04-30T17:25:48.219Z,6.67
2019-04-30T17:28:18.670Z,6.70
2019-04-30T17:30:49.012Z,7.00
2019-04-30T17:33:17.237Z,6.60
2019-04-30T17:35:45.813Z,6.40
2019-04-30T17:38:14.348Z,7.47
2019-04-30T17:40:42.902Z,6.93
2019-04-30T17:43:11.429Z,6.70
2019-04-30T17:45:40.006Z,6.83
2019-04-30T17:48:08.542Z,7.10
2019-04-30T17:50:37.101Z,6.47
2019-04-30T17:53:05.636Z,6.37
2019-04-30T17:55:34.345Z,7.90
2019-04-30T17:58:02.808Z,6.20
2019-04-30T18:00:33.015Z,6.63
2019-04-30T18:03:02.026Z,6.33
2019-04-30T18:05:30.735Z,7.93
2019-04-30T18:07:59.282Z,7.20
2019-04-30T18:10:28.370Z,7.20
2019-04-30T18:12:56.905Z,6.30
2019-04-30T18:15:27.041Z,7.23
2019-04-30T18:18:00.175Z,6.87
2019-04-30T18:20:39.258Z,7.00
2019-04-30T18:23:09.441Z,7.13
2019-04-30T18:25:39.599Z,7.40
2019-04-30T18:28:09.154Z,7.87
2019-04-30T18:30:39.659Z,7.10
2019-04-30T18:33:09.921Z,6.93
2019-04-30T18:35:38.890Z,7.67
2019-04-30T18:38:09.635Z,7.87
2019-04-30T18:40:39.730Z,7.97
2019-04-30T18:43:08.559Z,7.57
2019-04-30T18:45:39.403Z,20.20
2019-04-30T18:48:09.567Z,7.90
2019-04-30T18:50:37.958Z,8.10
2019-04-30T18:53:08.682Z,8.00
2019-04-30T18:55:37.313Z,7.53
2019-04-30T18:58:05.914Z,7.37
2019-04-30T19:00:39.648Z,6.30
2019-04-30T19:03:08.700Z,7.20
2019-04-30T19:05:39.366Z,6.97
2019-04-30T19:08:24.672Z,6.97
2019-04-30T19:11:11.295Z,6.73
2019-04-30T19:13:59.287Z,6.83
2019-04-30T19:16:49.451Z,7.60
2019-04-30T19:19:19.834Z,7.03
2019-04-30T19:21:48.687Z,7.63
2019-04-30T19:24:17.410Z,7.70
2019-04-30T19:26:45.966Z,6.83
2019-04-30T19:29:14.510Z,7.70
2019-04-30T19:31:43.070Z,7.77
2019-04-30T19:34:11.560Z,7.20
2019-04-30T19:36:40.667Z,7.27
2019-04-30T19:39:09.942Z,7.50
2019-04-30T19:41:38.744Z,7.40
2019-04-30T19:44:07.421Z,8.83
2019-04-30T19:46:35.897Z,7.47
2019-04-30T19:49:04.464Z,8.10
2019-04-30T19:51:33.073Z,7.90
2019-04-30T19:54:01.562Z,7.50
2019-04-30T19:56:32.747Z,7.97
2019-04-30T19:59:05.275Z,6.93
2019-04-30T20:01:30.502Z,7.77
2019-04-30T20:03:59.350Z,7.50
2019-04-30T20:06:28.736Z,7.77
2019-04-30T20:08:59.038Z,6.63
2019-04-30T20:11:27.674Z,7.87
2019-04-30T20:13:56.166Z,7.80
2019-04-30T20:16:24.642Z,8.03
2019-04-30T20:18:53.202Z,8.60
2019-04-30T20:21:28.589Z,8.47
2019-04-30T20:23:53.692Z,8.13
2019-04-30T20:26:22.513Z,8.67
2019-04-30T20:28:51.093Z,8.73
2019-04-30T20:31:19.697Z,8.00
2019-04-30T20:33:48.920Z,8.87
2019-04-30T20:36:19.042Z,8.07
2019-04-30T20:38:55.105Z,8.80
2019-04-30T20:41:25.281Z,8.60
2019-04-30T20:43:53.841Z,8.80
2019-04-30T20:46:32.093Z,8.17
2019-04-30T20:48:52.524Z,8.30
2019-04-30T20:51:21.087Z,8.20
2019-04-30T20:53:49.634Z,8.87
2019-04-30T20:56:19.149Z,8.37
2019-04-30T20:58:57.141Z,9.40
2019-04-30T21:01:19.327Z,9.37
2019-04-30T21:03:47.997Z,9.37
2019-04-30T21:06:16.472Z,8.80
2019-04-30T21:08:45.042Z,9.10
2019-04-30T21:11:13.871Z,8.63
2019-04-30T21:13:42.430Z,9.07
2019-04-30T21:16:10.902Z,8.83
2019-04-30T21:18:39.538Z,8.13
2019-04-30T21:21:08.398Z,9.77
2019-04-30T21:23:39.123Z,10.40
2019-04-30T21:26:08.578Z,10.13
2019-04-30T21:28:39.206Z,9.53
2019-04-30T21:31:25.106Z,10.07
2019-04-30T21:33:58.121Z,8.77
2019-04-30T21:36:28.447Z,10.07
2019-04-30T21:38:58.945Z,10.20
2019-04-30T21:41:27.114Z,9.30
2019-04-30T21:43:56.451Z,10.20
2019-04-30T21:46:24.999Z,10.10
2019-04-30T21:48:53.615Z,10.10
2019-04-30T21:51:22.149Z,9.10
2019-04-30T21:53:50.690Z,10.37
2019-04-30T21:56:19.184Z,9.90
2019-04-30T21:58:47.730Z,9.80
2019-04-30T22:01:18.109Z,10.07
2019-04-30T22:03:47.562Z,10.80
2019-04-30T22:06:16.581Z,10.00
2019-04-30T22:08:45.057Z,10.37
2019-04-30T22:11:13.693Z,10.60
2019-04-30T22:13:43.230Z,10.73
2019-04-30T22:16:11.973Z,9.50
2019-04-30T22:18:40.591Z,11.17
2019-04-30T22:21:09.186Z,11.10
2019-04-30T22:23:37.788Z,11.97
2019-04-30T22:26:06.294Z,12.30
2019-04-30T22:28:34.902Z,10.10
2019-04-30T22:31:03.545Z,10.50
2019-04-30T22:33:32.169Z,10.60
2019-04-30T22:36:10.976Z,10.17
2019-04-30T22:38:50.227Z,10.97
2019-04-30T22:41:20.430Z,10.47
2019-04-30T22:43:48.977Z,11.00
2019-04-30T22:46:19.469Z,10.77
2019-04-30T22:48:48.181Z,10.40
2019-04-30T22:51:16.759Z,11.60
2019-04-30T22:53:45.304Z,10.93
2019-04-30T22:56:13.882Z,11.70
2019-04-30T22:58:42.425Z,12.20
2019-04-30T23:01:21.358Z,11.00
2019-04-30T23:03:51.545Z,10.37
2019-04-30T23:06:20.189Z,11.77
2019-04-30T23:08:48.804Z,11.77
2019-04-30T23:11:17.372Z,11.87
2019-04-30T23:13:45.911Z,11.67
2019-04-30T23:16:14.749Z,12.60
2019-04-30T23:18:43.214Z,11.27
2019-04-30T23:21:11.714Z,11.43
2019-04-30T23:23:40.174Z,10.77
2019-04-30T23:26:08.691Z,11.40
2019-04-30T23:28:37.243Z,12.10
2019-04-30T23:31:05.781Z,12.07
2019-04-30T23:33:34.346Z,12.73
2019-04-30T23:36:02.883Z,12.10
2019-04-30T23:38:31.448Z,11.40
2019-04-30T23:40:59.994Z,11.60
2019-04-30T23:43:28.578Z,11.37
2019-04-30T23:45:57.094Z,11.73
2019-04-30T23:48:25.714Z,10.27
2019-04-30T23:50:54.218Z,10.83
2019-04-30T23:53:22.785Z,11.77
2019-04-30T23:55:51.263Z,12.00
2019-04-30T23:58:19.902Z,11.57
